Time;durP1;ratioP1;P1;durP2;ratioP2;P2;SDS_P1;SDS_P2;PMS_P1;PMS_P2;Temp;Humidity;BMP_temperature;BMP_pressure;BME280_temperature;BME280_humidity;BME280_pressure;Samples;Min_cycle;Max_cycle;Signal;HPM_P1;HPM_P2
2022/07/26 00:00:59;;;;;;;12.85;3.00;;;18.40;99.90;;;;;;5057515;28;20036;-56
2022/07/26 00:03:25;;;;;;;13.55;3.05;;;18.40;99.90;;;;;;5055828;28;20043;-56
2022/07/26 00:05:50;;;;;;;13.20;3.17;;;18.40;99.90;;;;;;5056268;28;20036;-56
2022/07/26 00:08:16;;;;;;;13.77;2.90;;;18.30;99.90;;;;;;5060308;28;20044;-58
2022/07/26 00:10:45;;;;;;;14.60;3.40;;;18.40;99.90;;;;;;5058982;28;20040;-56
2022/07/26 00:13:12;;;;;;;14.73;3.78;;;18.30;99.90;;;;;;5061362;28;20484;-57
2022/07/26 00:15:38;;;;;;;14.98;3.30;;;18.30;99.90;;;;;;5053846;28;20184;-56
2022/07/26 00:18:04;;;;;;;15.18;3.60;;;18.30;99.90;;;;;;5062864;28;20060;-58
2022/07/26 00:20:30;;;;;;;10.77;3.20;;;18.30;99.90;;;;;;5060648;28;20028;-57
2022/07/26 00:22:56;;;;;;;8.38;2.70;;;18.30;99.90;;;;;;5060797;28;20052;-57
2022/07/26 00:25:22;;;;;;;13.27;3.38;;;18.30;99.90;;;;;;5054211;28;20033;-58
2022/07/26 00:27:47;;;;;;;13.80;3.53;;;18.30;99.90;;;;;;5057198;28;20133;-56
2022/07/26 00:30:13;;;;;;;11.95;3.38;;;18.30;99.90;;;;;;5054699;28;20568;-58
2022/07/26 00:32:39;;;;;;;12.35;3.70;;;18.40;99.90;;;;;;5055926;28;20045;-58
2022/07/26 00:35:05;;;;;;;12.82;3.38;;;18.30;99.90;;;;;;5057250;28;20503;-56
2022/07/26 00:37:31;;;;;;;11.25;3.55;;;18.30;99.90;;;;;;5053179;28;20090;-55
2022/07/26 00:39:57;;;;;;;8.75;2.97;;;18.40;99.90;;;;;;5057306;28;20746;-56
2022/07/26 00:42:22;;;;;;;17.95;3.90;;;18.40;99.90;;;;;;5054301;28;20048;-56
2022/07/26 00:44:48;;;;;;;14.15;3.03;;;18.40;99.90;;;;;;5056515;28;20040;-56
2022/07/26 00:47:14;;;;;;;13.90;2.97;;;18.40;99.90;;;;;;5054877;28;20578;-56
2022/07/26 00:49:41;;;;;;;13.85;3.28;;;18.40;99.90;;;;;;5054845;28;20082;-57
2022/07/26 00:52:08;;;;;;;15.85;3.60;;;18.30;99.90;;;;;;5058124;28;20044;-57
2022/07/26 00:54:33;;;;;;;16.13;3.80;;;18.30;99.90;;;;;;5055850;28;20053;-57
2022/07/26 00:56:59;;;;;;;9.52;3.28;;;18.30;99.90;;;;;;5052618;28;20037;-56
2022/07/26 00:59:25;;;;;;;17.00;3.72;;;18.30;99.90;;;;;;5051547;28;20401;-55
2022/07/26 01:01:50;;;;;;;11.07;3.50;;;18.30;99.90;;;;;;5055609;28;20535;-56
2022/07/26 01:04:16;;;;;;;13.48;3.05;;;18.20;99.90;;;;;;5059340;28;20052;-57
2022/07/26 01:06:41;;;;;;;11.27;3.15;;;18.10;99.90;;;;;;5054640;28;20033;-57
2022/07/26 01:09:08;;;;;;;12.27;3.55;;;18.10;99.90;;;;;;5059601;28;20399;-55
2022/07/26 01:11:33;;;;;;;15.02;3.65;;;18.10;99.90;;;;;;5058957;28;20098;-57
2022/07/26 01:13:59;;;;;;;14.82;4.15;;;18.00;99.90;;;;;;5060132;28;20052;-57
2022/07/26 01:16:25;;;;;;;17.98;3.50;;;18.00;99.90;;;;;;5059832;28;20032;-55
2022/07/26 01:18:50;;;;;;;13.88;3.67;;;17.90;99.90;;;;;;5060751;28;20043;-56
2022/07/26 01:21:16;;;;;;;12.82;3.72;;;17.90;99.90;;;;;;5060935;28;20037;-55
2022/07/26 01:23:42;;;;;;;12.82;3.67;;;17.90;99.90;;;;;;5058703;28;20447;-56
2022/07/26 01:26:09;;;;;;;12.88;4.10;;;17.90;99.90;;;;;;5057444;28;20044;-57
2022/07/26 01:28:36;;;;;;;15.90;3.45;;;17.90;99.90;;;;;;5055101;28;20044;-58
2022/07/26 01:31:03;;;;;;;15.30;3.75;;;17.80;99.90;;;;;;5055145;28;20062;-57
2022/07/26 01:33:29;;;;;;;13.80;3.83;;;17.70;99.90;;;;;;5051709;28;20052;-57
2022/07/26 01:35:55;;;;;;;15.23;3.58;;;17.70;99.90;;;;;;5053796;28;20454;-57
2022/07/26 01:38:20;;;;;;;15.90;3.70;;;17.60;99.90;;;;;;5056643;28;20098;-57
2022/07/26 01:40:46;;;;;;;12.90;3.38;;;17.60;99.90;;;;;;5057896;28;20487;-57
2022/07/26 01:43:11;;;;;;;11.25;3.20;;;17.60;99.90;;;;;;5053185;28;20127;-55
2022/07/26 01:45:37;;;;;;;11.77;3.15;;;17.50;99.90;;;;;;5058666;28;20505;-57
2022/07/26 01:48:03;;;;;;;16.00;3.95;;;17.50;99.90;;;;;;5058495;28;20037;-56
2022/07/26 01:50:29;;;;;;;14.35;4.07;;;17.60;99.90;;;;;;5054999;28;20093;-55
2022/07/26 01:52:54;;;;;;;15.13;3.55;;;17.60;99.90;;;;;;5057886;28;20033;-57
2022/07/26 01:55:20;;;;;;;13.88;3.80;;;17.60;99.90;;;;;;5056736;28;20044;-57
2022/07/26 01:57:45;;;;;;;19.33;4.25;;;17.60;99.90;;;;;;5052691;28;20041;-58
2022/07/26 02:00:11;;;;;;;15.27;3.75;;;17.60;99.90;;;;;;5055459;28;20043;-55
2022/07/26 02:02:37;;;;;;;13.45;3.53;;;17.60;99.90;;;;;;5056278;28;20479;-56
2022/07/26 02:05:04;;;;;;;13.85;3.97;;;17.60;99.90;;;;;;5054780;28;20039;-56
2022/07/26 02:07:32;;;;;;;14.02;4.78;;;17.50;99.90;;;;;;5060123;28;20044;-55
2022/07/26 02:09:58;;;;;;;17.13;4.10;;;17.40;99.90;;;;;;5056966;28;20045;-55
2022/07/26 02:12:24;;;;;;;21.55;3.97;;;17.40;99.90;;;;;;5054091;28;20037;-56
2022/07/26 02:14:50;;;;;;;14.23;4.03;;;17.40;99.90;;;;;;5054343;28;20033;-57
2022/07/26 02:17:16;;;;;;;13.02;3.75;;;17.40;99.90;;;;;;5057292;28;20090;-55
2022/07/26 02:19:41;;;;;;;15.38;3.92;;;17.40;99.90;;;;;;5058574;28;21126;-55
2022/07/26 02:22:07;;;;;;;12.68;3.53;;;;;;;;;;5050666;28;20052;-53
2022/07/26 02:24:33;;;;;;;14.85;3.90;;;17.30;99.90;;;;;;5058233;28;20048;-56
2022/07/26 02:27:00;;;;;;;11.23;3.33;;;17.30;99.90;;;;;;5055283;28;20032;-56
2022/07/26 02:29:26;;;;;;;18.20;3.92;;;17.20;99.90;;;;;;5053914;28;20064;-56
2022/07/26 02:31:53;;;;;;;14.43;4.22;;;17.20;99.90;;;;;;5059160;28;20051;-58
2022/07/26 02:34:19;;;;;;;13.38;4.00;;;17.20;99.90;;;;;;5059967;28;20088;-57
2022/07/26 02:36:45;;;;;;;20.92;3.92;;;17.20;99.90;;;;;;5064310;28;20498;-56
2022/07/26 02:41:39;;;;;;;14.70;3.92;;;17.10;99.90;;;;;;5036490;28;20045;-71
2022/07/26 02:44:06;;;;;;;15.30;4.63;;;17.10;99.90;;;;;;5042404;28;20033;-71
2022/07/26 02:46:32;;;;;;;14.93;3.78;;;17.00;99.90;;;;;;5034719;28;20166;-71
2022/07/26 02:48:59;;;;;;;12.88;4.50;;;17.00;99.90;;;;;;5044346;28;20539;-71
2022/07/26 02:51:25;;;;;;;21.77;4.68;;;17.00;99.90;;;;;;5041264;28;20076;-71
2022/07/26 02:53:51;;;;;;;14.60;4.65;;;17.00;99.90;;;;;;5039514;28;20140;-71
2022/07/26 02:56:16;;;;;;;13.05;4.25;;;17.00;99.90;;;;;;5040281;28;20029;-71
2022/07/26 02:58:42;;;;;;;13.93;4.28;;;17.00;99.90;;;;;;5039810;28;20521;-71
2022/07/26 03:01:08;;;;;;;16.55;4.80;;;17.00;99.90;;;;;;5038116;28;20099;-71
2022/07/26 03:03:33;;;;;;;18.77;4.40;;;16.90;99.90;;;;;;5043760;28;20091;-71
2022/07/26 03:05:59;;;;;;;18.05;4.75;;;16.90;99.90;;;;;;5043970;28;20041;-72
2022/07/26 03:08:24;;;;;;;13.80;4.13;;;17.00;99.90;;;;;;5048265;28;20116;-72
2022/07/26 03:10:50;;;;;;;14.60;3.90;;;17.00;99.90;;;;;;5043361;28;20546;-71
2022/07/26 03:13:15;;;;;;;11.85;3.45;;;17.10;99.90;;;;;;5040511;28;20053;-71
2022/07/26 03:15:41;;;;;;;12.63;3.28;;;17.10;99.90;;;;;;5044916;28;20041;-71
2022/07/26 03:18:06;;;;;;;9.52;3.47;;;17.10;99.90;;;;;;5047526;28;20116;-72
2022/07/26 03:20:32;;;;;;;19.27;4.22;;;17.10;99.90;;;;;;5041692;28;20082;-71
2022/07/26 03:22:58;;;;;;;16.23;3.90;;;17.10;99.90;;;;;;5041850;28;20473;-71
2022/07/26 03:25:23;;;;;;;16.20;4.05;;;17.10;99.90;;;;;;5044355;28;21657;-71
2022/07/26 03:27:49;;;;;;;16.23;4.35;;;17.10;99.90;;;;;;5039880;28;20045;-71
2022/07/26 03:30:14;;;;;;;14.10;4.03;;;17.20;99.90;;;;;;5044977;28;20123;-71
2022/07/26 03:32:40;;;;;;;16.33;4.05;;;17.20;99.90;;;;;;5034772;28;20041;-71
2022/07/26 03:35:07;;;;;;;13.50;4.15;;;17.30;99.90;;;;;;5041087;28;20041;-71
2022/07/26 03:37:33;;;;;;;14.70;4.18;;;17.30;99.90;;;;;;5044485;28;20045;-72
2022/07/26 03:39:58;;;;;;;13.55;4.38;;;17.30;99.90;;;;;;5045472;28;20040;-72
2022/07/26 03:42:24;;;;;;;15.43;4.28;;;17.30;99.90;;;;;;5039237;28;20130;-71
2022/07/26 03:44:50;;;;;;;15.10;4.72;;;17.30;99.90;;;;;;5045562;28;20041;-72
2022/07/26 03:47:15;;;;;;;15.50;4.47;;;17.30;99.90;;;;;;5035429;28;20128;-72
2022/07/26 03:49:41;;;;;;;12.65;4.38;;;17.40;99.90;;;;;;5039505;28;20079;-71
2022/07/26 03:52:06;;;;;;;17.17;4.72;;;17.40;99.90;;;;;;5020221;28;20491;-71
2022/07/26 03:54:32;;;;;;;17.45;4.30;;;17.40;99.90;;;;;;5045880;28;20167;-71
2022/07/26 03:56:57;;;;;;;12.57;4.03;;;17.30;99.90;;;;;;5044785;28;20033;-71
2022/07/26 03:59:24;;;;;;;15.40;4.38;;;17.30;99.90;;;;;;5038678;28;20049;-70
2022/07/26 04:01:50;;;;;;;12.48;3.72;;;17.30;99.90;;;;;;5038963;28;20049;-71
2022/07/26 04:04:17;;;;;;;14.10;4.13;;;17.20;99.90;;;;;;5045773;28;20045;-70
2022/07/26 04:06:44;;;;;;;16.58;4.18;;;17.10;99.90;;;;;;5037232;28;20045;-70
2022/07/26 04:09:10;;;;;;;15.57;4.70;;;17.10;99.90;;;;;;5042914;28;20048;-70
2022/07/26 04:11:36;;;;;;;14.60;4.35;;;17.10;99.90;;;;;;5045204;28;20060;-70
2022/07/26 04:14:03;;;;;;;11.98;4.60;;;17.10;99.90;;;;;;5043106;28;20037;-71
2022/07/26 04:16:29;;;;;;;15.00;4.97;;;17.10;99.90;;;;;;5043474;28;20051;-70
2022/07/26 04:18:55;;;;;;;14.52;4.22;;;17.20;99.90;;;;;;5045233;28;20045;-71
2022/07/26 04:21:21;;;;;;;12.93;4.05;;;17.20;99.90;;;;;;5045391;28;20361;-71
2022/07/26 04:23:47;;;;;;;17.60;4.70;;;17.30;99.90;;;;;;5044916;28;20126;-70
2022/07/26 04:26:13;;;;;;;13.52;4.97;;;17.20;99.90;;;;;;5042991;28;20101;-68
2022/07/26 04:28:39;;;;;;;14.75;4.95;;;17.20;99.90;;;;;;5037891;28;20150;-69
2022/07/26 04:31:05;;;;;;;14.55;5.15;;;17.20;99.90;;;;;;5038975;28;20090;-69
2022/07/26 04:33:31;;;;;;;13.65;4.80;;;17.10;99.90;;;;;;5042385;28;20045;-69
2022/07/26 04:35:58;;;;;;;10.70;4.60;;;17.10;99.90;;;;;;5037147;28;21286;-69
2022/07/26 04:38:24;;;;;;;10.68;4.45;;;17.10;99.90;;;;;;5042677;28;20041;-69
2022/07/26 04:40:50;;;;;;;11.00;4.63;;;17.10;99.90;;;;;;5040082;28;20405;-69
2022/07/26 04:43:16;;;;;;;9.73;4.07;;;17.10;99.90;;;;;;5037755;28;20048;-69
2022/07/26 04:45:46;;;;;;;9.77;4.20;;;17.10;99.90;;;;;;5037619;28;20053;-70
2022/07/26 04:48:12;;;;;;;9.63;4.03;;;17.10;99.90;;;;;;5041336;28;20072;-70
2022/07/26 04:50:38;;;;;;;7.97;3.60;;;17.10;99.90;;;;;;5044691;28;20036;-68
2022/07/26 04:53:04;;;;;;;6.50;2.88;;;17.10;99.90;;;;;;5041733;28;20501;-70
2022/07/26 04:55:30;;;;;;;9.13;3.58;;;17.10;99.90;;;;;;5040525;28;20049;-70
2022/07/26 04:57:56;;;;;;;6.25;3.08;;;;;;;;;;5044812;28;20120;-70
2022/07/26 05:00:23;;;;;;;7.72;3.20;;;17.20;99.90;;;;;;5037746;28;20048;-69
2022/07/26 05:03:00;;;;;;;10.68;3.58;;;17.30;99.90;;;;;;5040423;28;20116;-70
2022/07/26 05:05:28;;;;;;;7.38;2.97;;;17.30;99.90;;;;;;5041160;28;20045;-70
2022/07/26 05:07:57;;;;;;;7.45;3.17;;;17.30;99.90;;;;;;5045003;28;20041;-70
2022/07/26 05:10:34;;;;;;;7.65;2.38;;;17.30;99.90;;;;;;5038867;28;20146;-69
2022/07/26 05:13:02;;;;;;;7.25;2.80;;;17.40;99.90;;;;;;5043477;28;20049;-71
2022/07/26 05:15:30;;;;;;;6.80;3.00;;;17.40;99.90;;;;;;5042776;28;20048;-70
2022/07/26 05:18:01;;;;;;;8.55;2.92;;;17.40;99.90;;;;;;5036371;28;20112;-69
2022/07/26 05:20:26;;;;;;;8.23;3.40;;;17.40;99.90;;;;;;5040017;28;20052;-70
2022/07/26 05:22:52;;;;;;;7.47;2.80;;;17.50;99.90;;;;;;5039952;28;20064;-69
2022/07/26 05:25:18;;;;;;;5.53;2.53;;;17.60;99.90;;;;;;5041666;28;20086;-69
2022/07/26 05:27:44;;;;;;;5.90;2.50;;;;;;;;;;5045113;28;20044;-69
2022/07/26 05:30:10;;;;;;;7.57;2.90;;;17.70;99.90;;;;;;5037259;28;20048;-70
2022/07/26 05:32:35;;;;;;;5.72;2.28;;;17.80;99.90;;;;;;5040865;28;20056;-70
2022/07/26 05:35:01;;;;;;;6.15;2.80;;;18.00;99.90;;;;;;5035637;28;20433;-68
2022/07/26 05:37:26;;;;;;;5.00;2.58;;;18.10;99.90;;;;;;5040250;28;20492;-68
2022/07/26 05:39:52;;;;;;;9.10;2.42;;;18.10;99.90;;;;;;5042663;28;20049;-69
2022/07/26 05:42:18;;;;;;;6.18;2.65;;;18.10;99.90;;;;;;5027776;28;20049;-69
2022/07/26 05:44:43;;;;;;;6.03;2.60;;;18.20;99.90;;;;;;5037631;28;20048;-69
2022/07/26 05:47:09;;;;;;;6.40;2.25;;;18.30;99.90;;;;;;5040050;28;20490;-70
2022/07/26 05:49:34;;;;;;;8.60;2.38;;;18.10;99.90;;;;;;5037166;28;20048;-70
2022/07/26 05:52:01;;;;;;;6.15;2.00;;;18.10;99.90;;;;;;5037714;28;20049;-69
2022/07/26 05:54:26;;;;;;;5.68;2.42;;;18.10;99.90;;;;;;5038779;28;20092;-69
2022/07/26 05:56:52;;;;;;;5.05;2.10;;;18.10;99.90;;;;;;5039103;28;20037;-69
2022/07/26 05:59:17;;;;;;;7.97;2.15;;;18.10;99.90;;;;;;5044469;28;20046;-69
2022/07/26 06:01:43;;;;;;;10.10;2.05;;;18.00;99.90;;;;;;5042324;28;20623;-69
2022/07/26 06:04:09;;;;;;;10.40;2.03;;;18.00;99.90;;;;;;5042835;28;20588;-69
2022/07/26 06:06:34;;;;;;;5.32;1.92;;;18.10;99.90;;;;;;5044321;28;20083;-69
2022/07/26 06:09:00;;;;;;;4.75;1.85;;;18.00;99.90;;;;;;5043421;28;20033;-69
2022/07/26 06:11:26;;;;;;;6.13;1.60;;;18.10;99.90;;;;;;5028891;28;20068;-69
2022/07/26 06:13:51;;;;;;;6.05;2.45;;;18.20;99.90;;;;;;5049302;28;20037;-71
2022/07/26 06:16:17;;;;;;;6.35;1.67;;;18.20;99.90;;;;;;5045394;28;20405;-70
2022/07/26 06:18:42;;;;;;;4.93;1.73;;;18.30;99.90;;;;;;5047917;28;20408;-70
2022/07/26 06:21:08;;;;;;;6.97;1.63;;;18.20;99.90;;;;;;5047654;28;20452;-70
2022/07/26 06:23:34;;;;;;;3.13;1.08;;;18.20;99.90;;;;;;5046095;28;20055;-70
2022/07/26 06:25:59;;;;;;;7.35;1.75;;;18.00;99.90;;;;;;5045825;28;20038;-68
2022/07/26 06:28:25;;;;;;;3.70;0.98;;;18.00;99.90;;;;;;5045029;28;20457;-69
2022/07/26 06:30:51;;;;;;;5.65;1.70;;;17.80;99.90;;;;;;5046387;28;20047;-69
2022/07/26 06:33:17;;;;;;;5.25;1.20;;;17.70;99.90;;;;;;5042023;28;20075;-67
2022/07/26 06:35:42;;;;;;;6.45;1.40;;;17.50;99.90;;;;;;5044013;28;20037;-68
2022/07/26 06:38:08;;;;;;;8.52;1.70;;;17.50;99.90;;;;;;5045948;28;20090;-68
2022/07/26 06:40:34;;;;;;;4.38;1.23;;;17.50;99.90;;;;;;5042946;28;20068;-70
2022/07/26 06:43:00;;;;;;;7.15;1.45;;;17.50;99.90;;;;;;5025531;28;20135;-68
2022/07/26 06:45:27;;;;;;;6.50;1.38;;;17.50;99.90;;;;;;5043114;28;20044;-69
2022/07/26 06:47:52;;;;;;;6.82;1.65;;;17.60;99.90;;;;;;5045267;28;20045;-68
2022/07/26 06:50:18;;;;;;;4.88;1.50;;;17.80;99.90;;;;;;5046720;28;20041;-68
2022/07/26 06:52:44;;;;;;;6.32;1.55;;;17.70;99.90;;;;;;5043671;28;20041;-68
2022/07/26 06:55:09;;;;;;;8.45;1.35;;;18.20;99.90;;;;;;5037958;28;20041;-68
2022/07/26 06:57:35;;;;;;;5.20;1.48;;;18.40;99.90;;;;;;5045951;28;20087;-66
2022/07/26 07:00:04;;;;;;;5.63;1.38;;;18.60;99.90;;;;;;5048819;28;20091;-67
2022/07/26 07:02:29;;;;;;;5.97;1.40;;;18.80;99.90;;;;;;5049392;28;20469;-70
2022/07/26 07:04:55;;;;;;;4.82;2.28;;;19.10;99.90;;;;;;5049006;28;20048;-70
2022/07/26 07:07:20;;;;;;;4.90;1.00;;;19.20;99.90;;;;;;5051282;28;20033;-68
2022/07/26 07:09:46;;;;;;;3.83;1.10;;;;;;;;;;5054566;28;20444;-69
2022/07/26 07:12:12;;;;;;;1.90;0.80;;;18.60;99.90;;;;;;5043820;28;20528;-68
2022/07/26 07:14:38;;;;;;;3.85;1.00;;;18.40;99.90;;;;;;5029341;28;20088;-68
2022/07/26 07:17:05;;;;;;;3.28;1.00;;;18.40;99.90;;;;;;5043354;28;20072;-68
2022/07/26 07:19:33;;;;;;;5.55;1.20;;;18.50;99.90;;;;;;5042333;28;20086;-68
2022/07/26 07:21:58;;;;;;;4.68;1.15;;;18.50;99.90;;;;;;5054050;28;20111;-68
2022/07/26 07:24:24;;;;;;;4.28;1.10;;;18.20;99.90;;;;;;5051498;28;20477;-68
2022/07/26 07:26:50;;;;;;;3.42;1.13;;;18.10;99.90;;;;;;5045042;28;20060;-68
2022/07/26 07:29:16;;;;;;;6.25;1.52;;;18.20;99.90;;;;;;5046909;28;20122;-68
2022/07/26 07:31:44;;;;;;;2.15;0.98;;;18.30;99.90;;;;;;5045618;28;20102;-69
2022/07/26 07:34:09;;;;;;;4.35;1.17;;;18.50;99.90;;;;;;5046191;28;20489;-68
2022/07/26 07:36:35;;;;;;;2.47;0.90;;;18.40;99.90;;;;;;5052007;28;20044;-69
2022/07/26 07:39:00;;;;;;;5.47;1.10;;;18.40;99.90;;;;;;5051574;28;20029;-70
2022/07/26 07:41:26;;;;;;;3.58;1.13;;;18.50;99.90;;;;;;5031260;28;20068;-69
2022/07/26 07:43:52;;;;;;;3.70;1.30;;;18.60;99.90;;;;;;5037317;28;22208;-69
2022/07/26 07:46:17;;;;;;;4.00;1.00;;;18.50;99.90;;;;;;5046228;28;20041;-69
2022/07/26 07:48:43;;;;;;;4.43;0.80;;;18.20;99.90;;;;;;5041522;28;20037;-69
2022/07/26 07:51:08;;;;;;;2.20;0.75;;;18.10;99.90;;;;;;5048585;28;20143;-69
2022/07/26 07:53:34;;;;;;;5.70;1.23;;;18.10;99.90;;;;;;5052492;28;20086;-68
2022/07/26 07:56:00;;;;;;;4.30;0.90;;;18.20;99.90;;;;;;5048347;28;20045;-69
2022/07/26 07:58:25;;;;;;;4.15;0.80;;;18.30;99.90;;;;;;5050722;28;20037;-69
2022/07/26 08:00:52;;;;;;;4.50;0.95;;;18.50;99.90;;;;;;5047311;28;20040;-69
2022/07/26 08:03:17;;;;;;;3.58;0.85;;;18.50;99.90;;;;;;5050875;28;20480;-69
2022/07/26 08:05:43;;;;;;;5.47;1.42;;;18.70;99.90;;;;;;5045289;28;20041;-69
2022/07/26 08:08:08;;;;;;;4.13;1.55;;;18.90;99.90;;;;;;5047318;28;20388;-69
2022/07/26 08:10:34;;;;;;;4.13;1.10;;;19.10;99.90;;;;;;5048259;28;20195;-69
2022/07/26 08:13:00;;;;;;;6.80;1.08;;;19.10;99.90;;;;;;5046319;28;21409;-69
2022/07/26 08:15:26;;;;;;;5.32;0.98;;;18.90;99.90;;;;;;5052006;28;20045;-69
2022/07/26 08:17:52;;;;;;;5.40;1.10;;;19.10;99.90;;;;;;5050155;28;20408;-69
2022/07/26 08:20:19;;;;;;;3.67;0.93;;;18.90;99.90;;;;;;5050921;28;20457;-69
2022/07/26 08:22:45;;;;;;;4.20;1.00;;;19.30;99.90;;;;;;5050089;28;20055;-69
2022/07/26 08:25:10;;;;;;;4.95;1.10;;;19.60;99.90;;;;;;5044355;28;20083;-70
2022/07/26 08:27:36;;;;;;;3.63;0.90;;;19.60;99.90;;;;;;5042550;28;20060;-69
2022/07/26 08:30:03;;;;;;;3.53;0.77;;;20.00;99.90;;;;;;5029864;28;20151;-68
2022/07/26 08:32:28;;;;;;;4.13;0.80;;;20.00;99.90;;;;;;5044391;28;20044;-67
2022/07/26 08:34:54;;;;;;;3.50;0.88;;;19.80;99.90;;;;;;5042629;28;20397;-67
2022/07/26 08:37:20;;;;;;;3.15;0.88;;;19.30;99.90;;;;;;5047258;28;20067;-67
2022/07/26 08:39:48;;;;;;;2.45;0.50;;;18.70;99.90;;;;;;5044058;28;20626;-68
2022/07/26 08:42:15;;;;;;;4.30;1.00;;;18.20;99.90;;;;;;5044334;28;20127;-68
2022/07/26 08:44:46;;;;;;;1.98;0.70;;;17.50;99.90;;;;;;5038722;28;20140;-67
2022/07/26 08:47:12;;;;;;;4.47;1.10;;;17.40;99.90;;;;;;5047444;28;20095;-67
2022/07/26 08:49:39;;;;;;;5.50;1.03;;;17.50;99.90;;;;;;5036627;28;20045;-67
2022/07/26 08:52:05;;;;;;;4.32;0.68;;;17.50;99.90;;;;;;5050582;28;20052;-67
2022/07/26 08:54:31;;;;;;;3.53;0.80;;;17.60;99.90;;;;;;5049678;28;20040;-67
2022/07/26 08:56:58;;;;;;;3.63;1.33;;;17.70;99.90;;;;;;5038001;28;20416;-67
2022/07/26 08:59:24;;;;;;;4.25;1.08;;;17.70;99.90;;;;;;5052429;28;20045;-67
2022/07/26 09:01:54;;;;;;;5.97;0.82;;;18.00;99.90;;;;;;5070130;28;20040;-67
2022/07/26 09:04:41;;;;;;;2.97;0.82;;;18.40;99.90;;;;;;5052246;28;20044;-67
2022/07/26 09:07:14;;;;;;;2.65;0.68;;;18.50;99.90;;;;;;5061293;28;20400;-67
2022/07/26 09:09:59;;;;;;;4.05;1.00;;;18.80;99.90;;;;;;5047067;28;20115;-67
2022/07/26 09:12:27;;;;;;;3.78;1.27;;;19.10;99.90;;;;;;5038403;28;20063;-68
2022/07/26 09:14:53;;;;;;;5.55;0.80;;;19.40;99.90;;;;;;5040136;28;20045;-67
2022/07/26 09:17:20;;;;;;;3.88;0.70;;;20.00;99.90;;;;;;5020926;28;20037;-67
2022/07/26 09:20:08;;;;;;;3.72;1.05;;;20.40;99.90;;;;;;5032910;28;20417;-68
2022/07/26 09:22:36;;;;;;;2.38;0.77;;;20.30;99.90;;;;;;5037924;28;20060;-67
2022/07/26 09:25:01;;;;;;;3.63;1.10;;;20.50;99.90;;;;;;5041357;28;20048;-68
2022/07/26 09:27:35;;;;;;;3.75;0.63;;;21.00;99.90;;;;;;5039982;28;20044;-68
2022/07/26 09:30:06;;;;;;;2.83;0.90;;;21.00;99.90;;;;;;5038094;28;20052;-67
2022/07/26 09:32:32;;;;;;;3.10;0.77;;;20.90;99.90;;;;;;5041567;28;20115;-68
2022/07/26 09:35:15;;;;;;;3.47;0.90;;;20.90;99.90;;;;;;5041271;28;20041;-67
2022/07/26 09:37:42;;;;;;;5.20;0.90;;;20.70;99.90;;;;;;5021855;28;20052;-67
2022/07/26 09:40:09;;;;;;;;;;;20.30;99.90;;;;;;5038789;28;20137;-68
2022/07/26 09:42:35;;;;;;;2.88;0.65;;;20.20;99.90;;;;;;5029547;28;20006;-68
2022/07/26 09:45:01;;;;;;;5.35;1.15;;;20.30;99.90;;;;;;5047425;28;20508;-68
2022/07/26 09:47:39;;;;;;;2.75;0.63;;;20.30;99.90;;;;;;5055199;28;20082;-67
2022/07/26 09:50:19;;;;;;;5.05;1.00;;;20.10;99.90;;;;;;5038261;28;20179;-67
2022/07/26 09:53:01;;;;;;;3.70;1.10;;;20.10;99.90;;;;;;5053245;28;20040;-68
2022/07/26 09:55:27;;;;;;;3.75;1.10;;;19.40;99.90;;;;;;5040462;28;20159;-68
2022/07/26 09:57:52;;;;;;;4.63;0.98;;;18.90;99.90;;;;;;5041510;28;20072;-68
2022/07/26 10:00:18;;;;;;;2.78;1.02;;;18.60;99.90;;;;;;5040303;28;20495;-69
2022/07/26 10:02:44;;;;;;;3.88;1.17;;;18.60;99.90;;;;;;5046971;28;20041;-68
2022/07/26 10:05:09;;;;;;;4.78;1.40;;;18.80;99.90;;;;;;5022009;28;20045;-68
2022/07/26 10:07:36;;;;;;;4.45;0.80;;;18.80;99.90;;;;;;5057972;28;20049;-68
2022/07/26 10:10:04;;;;;;;4.30;0.90;;;;;;;;;;5056556;28;20496;-68
2022/07/26 10:12:31;;;;;;;2.38;0.90;;;18.90;99.90;;;;;;5054293;28;20044;-68
2022/07/26 10:14:57;;;;;;;4.20;0.98;;;19.20;99.90;;;;;;5055665;28;20389;-68
2022/07/26 10:17:29;;;;;;;5.78;0.85;;;19.70;99.90;;;;;;5037534;28;20061;-68
2022/07/26 10:19:56;;;;;;;5.47;1.08;;;19.90;99.90;;;;;;5053449;28;20049;-68
2022/07/26 10:22:26;;;;;;;;;;;20.30;99.90;;;;;;5060858;28;20049;-67
2022/07/26 10:24:52;;;;;;;4.50;1.13;;;20.70;99.90;;;;;;5051466;28;19997;-68
2022/07/26 10:27:41;;;;;;;3.65;1.20;;;21.20;99.90;;;;;;5053939;28;20090;-68
2022/07/26 10:30:18;;;;;;;3.40;1.10;;;21.20;99.90;;;;;;5048848;28;20457;-68
2022/07/26 10:32:50;;;;;;;6.15;1.17;;;21.10;99.90;;;;;;5054086;28;20049;-68
2022/07/26 10:35:41;;;;;;;3.92;1.08;;;21.40;99.90;;;;;;5053772;28;20051;-69
2022/07/26 10:38:24;;;;;;;3.50;0.98;;;21.10;99.90;;;;;;5023751;28;20099;-68
2022/07/26 10:41:00;;;;;;;2.67;0.75;;;20.60;99.90;;;;;;5047257;28;20045;-68
2022/07/26 10:43:27;;;;;;;5.38;0.82;;;20.50;99.90;;;;;;5042701;28;20119;-68
2022/07/26 10:46:15;;;;;;;1.75;0.82;;;20.60;99.90;;;;;;5049034;28;20037;-68
2022/07/26 10:49:02;;;;;;;5.47;1.65;;;20.70;99.90;;;;;;5046186;28;20083;-68
2022/07/26 10:51:33;;;;;;;4.80;0.80;;;20.30;99.90;;;;;;5051058;28;20045;-69
2022/07/26 10:54:07;;;;;;;3.70;0.88;;;20.30;99.90;;;;;;5054804;28;20102;-68
2022/07/26 10:56:34;;;;;;;5.80;1.40;;;20.20;99.90;;;;;;5054486;28;20486;-68
2022/07/26 10:59:00;;;;;;;5.07;1.33;;;20.30;99.90;;;;;;5062205;28;20108;-68
2022/07/26 11:01:36;;;;;;;5.40;1.17;;;20.50;99.90;;;;;;5054410;28;20084;-68
2022/07/26 11:04:02;;;;;;;4.93;1.10;;;20.60;99.90;;;;;;5035133;28;20505;-68
2022/07/26 11:06:29;;;;;;;5.13;1.45;;;20.70;99.90;;;;;;5039119;28;20059;-68
2022/07/26 11:08:55;;;;;;;7.18;1.85;;;20.20;99.90;;;;;;5041639;28;20099;-68
2022/07/26 11:11:32;;;;;;;6.72;1.55;;;19.60;99.90;;;;;;5029135;28;20485;-68
2022/07/26 11:14:10;;;;;;;4.65;1.30;;;19.40;99.90;;;;;;5049382;28;20049;-68
2022/07/26 11:16:55;;;;;;;;;;;19.70;99.90;;;;;;5049697;28;20041;-71
2022/07/26 11:19:26;;;;;;;5.43;1.85;;;19.70;99.90;;;;;;5045620;28;19920;-70
2022/07/26 11:21:57;;;;;;;5.20;1.02;;;20.20;99.90;;;;;;5050441;28;20045;-70
2022/07/26 11:24:25;;;;;;;3.80;1.10;;;20.60;99.90;;;;;;5048912;28;20045;-68
2022/07/26 11:26:51;;;;;;;5.57;1.10;;;20.20;99.90;;;;;;5049863;28;20052;-68
2022/07/26 11:29:37;;;;;;;5.38;1.38;;;20.40;99.90;;;;;;5048451;28;20052;-69
2022/07/26 11:32:04;;;;;;;6.87;1.30;;;20.60;99.90;;;;;;5040210;28;21706;-69
2022/07/26 11:34:32;;;;;;;4.90;1.00;;;20.80;99.90;;;;;;5042938;28;20295;-68
2022/07/26 11:37:00;;;;;;;4.00;1.52;;;20.50;99.90;;;;;;5046165;28;20811;-69
2022/07/26 11:39:27;;;;;;;;;;;20.10;99.90;;;;;;5047163;28;20043;-69
2022/07/26 11:42:01;;;;;;;8.02;1.50;;;20.20;99.90;;;;;;5038380;28;19928;-69
2022/07/26 11:44:27;;;;;;;7.05;1.60;;;19.90;99.90;;;;;;5037811;28;20044;-70
2022/07/26 11:46:54;;;;;;;6.43;1.77;;;19.20;99.90;;;;;;5042544;28;20032;-70
2022/07/26 11:49:23;;;;;;;6.22;2.38;;;19.00;99.90;;;;;;5042954;28;20056;-68
2022/07/26 11:51:59;;;;;;;7.15;2.00;;;18.80;99.90;;;;;;5048886;28;20041;-67
2022/07/26 11:54:28;;;;;;;8.77;1.92;;;18.70;99.90;;;;;;5041787;28;20045;-68
2022/07/26 11:56:55;;;;;;;6.25;1.70;;;18.90;99.90;;;;;;5044968;28;20061;-68
2022/07/26 11:59:23;;;;;;;4.95;1.50;;;19.00;99.90;;;;;;5040973;28;20072;-68
2022/07/26 12:01:49;;;;;;;8.98;2.10;;;19.00;99.90;;;;;;5047080;28;20072;-68
2022/07/26 12:04:23;;;;;;;7.72;2.05;;;19.10;99.90;;;;;;5044724;28;20052;-68
2022/07/26 12:06:51;;;;;;;7.88;1.83;;;19.30;99.90;;;;;;5038034;28;20521;-68
2022/07/26 12:09:38;;;;;;;9.70;2.40;;;19.60;99.90;;;;;;5037268;28;20405;-68
2022/07/26 12:12:07;;;;;;;6.65;1.90;;;19.80;99.90;;;;;;5045881;28;20041;-68
2022/07/26 12:14:34;;;;;;;10.43;2.42;;;20.10;99.90;;;;;;5025364;28;20068;-67
2022/07/26 12:17:14;;;;;;;12.15;2.20;;;20.30;99.90;;;;;;5027916;28;20158;-68
2022/07/26 12:19:41;;;;;;;7.00;1.85;;;20.40;99.90;;;;;;5042046;28;20045;-68
2022/07/26 12:22:08;;;;;;;10.95;2.65;;;20.60;99.90;;;;;;5051636;28;20515;-68
2022/07/26 12:24:37;;;;;;;6.60;2.20;;;19.90;99.90;;;;;;5045052;28;20048;-67
2022/07/26 12:27:28;;;;;;;11.25;2.28;;;19.70;99.90;;;;;;5042584;28;20315;-67
2022/07/26 12:29:59;;;;;;;9.95;2.83;;;19.90;99.90;;;;;;5039159;28;20045;-68
2022/07/26 12:32:38;;;;;;;7.13;2.10;;;19.90;99.90;;;;;;5037224;28;20456;-68
2022/07/26 12:35:15;;;;;;;6.50;1.52;;;19.80;99.90;;;;;;5043455;28;20052;-68
2022/07/26 12:37:48;;;;;;;8.73;1.90;;;20.20;99.90;;;;;;5042501;28;20068;-68
2022/07/26 12:40:19;;;;;;;8.18;2.03;;;20.30;99.90;;;;;;5043239;28;20060;-68
2022/07/26 12:42:54;;;;;;;8.27;2.17;;;20.80;99.90;;;;;;5037956;28;20091;-68
2022/07/26 12:45:23;;;;;;;9.13;1.85;;;21.00;99.90;;;;;;5035479;28;20072;-68
2022/07/26 12:47:51;;;;;;;7.82;2.17;;;21.20;99.90;;;;;;5039190;28;20098;-68
2022/07/26 12:50:21;;;;;;;7.18;2.00;;;21.40;99.90;;;;;;5033901;28;20045;-67